Time;durP1;ratioP1;P1;durP2;ratioP2;P2;SDS_P1;SDS_P2;PMS_P1;PMS_P2;Temp;Humidity;BMP_temperature;BMP_pressure;BME280_temperature;BME280_humidity;BME280_pressure;Samples;Min_cycle;Max_cycle;Signal;HPM_P1;HPM_P2
2022/11/11 00:00:27;;;;;;;2.60;2.37;;;13.00;99.90;;;;;;4924347;28;20232;-80
2022/11/11 00:02:57;;;;;;;2.47;2.10;;;13.00;99.90;;;;;;4925408;28;20229;-81
2022/11/11 00:05:24;;;;;;;5.63;2.27;;;13.10;99.90;;;;;;4923860;29;20226;-80
2022/11/11 00:07:58;;;;;;;4.80;2.03;;;13.10;99.90;;;;;;4925076;28;20735;-80
2022/11/11 00:10:30;;;;;;;6.73;2.83;;;13.10;99.90;;;;;;4924842;28;20315;-81
2022/11/11 00:13:00;;;;;;;2.60;2.40;;;13.10;99.90;;;;;;4925605;29;20202;-81
2022/11/11 00:15:27;;;;;;;2.23;2.03;;;13.10;99.90;;;;;;4924535;28;20214;-81
2022/11/11 00:26:11;;;;;;;9.27;3.73;;;13.10;99.90;;;;;;4924635;28;20232;-82
2022/11/11 00:28:37;;;;;;;6.27;2.23;;;13.20;99.90;;;;;;4924866;28;20246;-81
2022/11/11 00:31:09;;;;;;;2.77;2.47;;;13.20;99.90;;;;;;4924248;29;20201;-80
2022/11/11 00:33:35;;;;;;;5.13;2.60;;;13.20;99.90;;;;;;4925368;29;20246;-80
2022/11/11 00:36:01;;;;;;;8.03;2.80;;;13.20;99.90;;;;;;4923587;28;20277;-81
2022/11/11 00:38:45;;;;;;;3.43;3.13;;;13.20;99.90;;;;;;4961558;28;21082;-81
2022/11/11 00:41:19;;;;;;;2.53;1.90;;;13.20;99.90;;;;;;4961541;28;20283;-81
2022/11/11 00:43:46;;;;;;;3.47;2.77;;;13.20;99.90;;;;;;4962329;28;20236;-80
2022/11/11 00:51:44;;;;;;;4.37;1.63;;;13.20;99.90;;;;;;4962940;28;20216;-81
2022/11/11 00:54:11;;;;;;;6.37;2.33;;;13.30;99.90;;;;;;4961766;28;20252;-80
2022/11/11 00:56:37;;;;;;;2.67;2.20;;;13.30;99.90;;;;;;4962760;28;20221;-81
2022/11/11 00:59:07;;;;;;;7.43;2.50;;;13.30;99.90;;;;;;4963009;28;20228;-79
2022/11/11 01:01:34;;;;;;;5.27;3.30;;;13.30;99.90;;;;;;4962677;28;20219;-80
2022/11/11 01:04:00;;;;;;;4.03;2.77;;;13.30;99.90;;;;;;4962974;28;20283;-82
2022/11/11 01:06:26;;;;;;;11.17;3.53;;;13.20;99.90;;;;;;4962500;28;20701;-80
2022/11/11 01:08:52;;;;;;;5.97;2.50;;;13.30;99.90;;;;;;4945246;28;20244;-80
2022/11/11 01:11:21;;;;;;;4.13;1.93;;;13.30;99.90;;;;;;4960743;28;20227;-81
2022/11/11 01:13:47;;;;;;;7.20;2.70;;;13.20;99.90;;;;;;4961483;28;20232;-79
2022/11/11 01:16:30;;;;;;;2.60;2.23;;;13.20;99.90;;;;;;4960629;28;20612;-80
2022/11/11 01:18:56;;;;;;;3.77;2.60;;;13.20;99.90;;;;;;4963201;28;20243;-80
2022/11/11 01:21:23;;;;;;;5.30;2.33;;;13.20;99.90;;;;;;4944527;28;20221;-79
2022/11/11 01:23:50;;;;;;;7.53;2.67;;;13.20;99.90;;;;;;4962324;28;20290;-80
2022/11/11 01:26:26;;;;;;;5.00;2.10;;;13.20;99.90;;;;;;4962119;28;20224;-79
2022/11/11 01:28:53;;;;;;;7.37;2.27;;;13.20;99.90;;;;;;4962056;28;20240;-79
2022/11/11 01:31:21;;;;;;;3.43;2.53;;;13.20;99.90;;;;;;4961828;28;20192;-81
2022/11/11 01:33:47;;;;;;;9.40;2.77;;;13.30;99.90;;;;;;4945505;28;20212;-79
2022/11/11 01:36:24;;;;;;;4.10;3.23;;;13.30;99.90;;;;;;4961689;28;20246;-79
2022/11/11 01:38:53;;;;;;;2.93;2.60;;;13.20;99.90;;;;;;4976656;28;20281;-80
2022/11/11 01:41:31;;;;;;;7.20;3.30;;;13.20;99.90;;;;;;4961818;28;20228;-81
2022/11/11 01:44:18;;;;;;;2.80;2.47;;;13.20;99.90;;;;;;4962029;28;20216;-80
2022/11/11 01:46:56;;;;;;;2.13;1.57;;;13.20;99.90;;;;;;4961418;28;20247;-80
2022/11/11 01:49:22;;;;;;;2.73;2.13;;;13.20;99.90;;;;;;4959580;28;20200;-81
2022/11/11 01:52:08;;;;;;;5.13;3.17;;;13.30;99.90;;;;;;4962503;28;20202;-78
2022/11/11 01:54:54;;;;;;;5.27;3.30;;;13.20;99.90;;;;;;4961584;28;20231;-79
2022/11/11 01:57:38;;;;;;;3.37;2.80;;;13.30;99.90;;;;;;4961793;28;20224;-79
2022/11/11 02:00:14;;;;;;;3.40;2.47;;;13.30;99.90;;;;;;4962268;28;20308;-80
2022/11/11 02:02:44;;;;;;;5.37;1.90;;;13.40;99.90;;;;;;4961204;28;20618;-80
2022/11/11 02:07:59;;;;;;;2.83;2.23;;;13.40;99.90;;;;;;4961145;28;20244;-79
2022/11/11 02:10:27;;;;;;;2.83;2.17;;;13.50;99.90;;;;;;4961648;28;20220;-79
2022/11/11 02:15:37;;;;;;;3.50;2.47;;;13.50;99.90;;;;;;4963966;28;20326;-78
2022/11/11 02:18:04;;;;;;;18.50;3.50;;;13.50;99.90;;;;;;4965508;28;20649;-79
2022/11/11 02:20:35;;;;;;;6.67;2.93;;;13.50;99.90;;;;;;4965413;28;20307;-81
2022/11/11 02:23:03;;;;;;;3.30;2.73;;;13.50;99.90;;;;;;4966027;28;20901;-81
2022/11/11 02:25:31;;;;;;;6.07;3.30;;;13.50;99.90;;;;;;4965661;28;20216;-81
2022/11/11 02:28:02;;;;;;;3.67;2.47;;;13.50;99.90;;;;;;4966133;28;20207;-81
2022/11/11 02:30:28;;;;;;;9.20;2.97;;;13.60;99.90;;;;;;4965441;28;20227;-81
2022/11/11 02:32:54;;;;;;;6.10;3.23;;;13.60;99.90;;;;;;4965649;28;20216;-80
2022/11/11 02:35:34;;;;;;;20.20;3.37;;;13.60;99.90;;;;;;4963692;28;20693;-81
2022/11/11 02:38:09;;;;;;;3.60;2.73;;;13.60;99.90;;;;;;4964784;28;20582;-82
2022/11/11 02:41:55;;;;;;;3.53;2.43;;;13.60;99.90;;;;;;4965132;28;20223;-81
2022/11/11 02:43:30;;;;;;;2.43;2.23;;;13.60;99.90;;;;;;4964622;28;20286;-80
2022/11/11 02:45:56;;;;;;;3.27;2.07;;;13.60;99.90;;;;;;4965223;28;20200;-80
2022/11/11 02:48:22;;;;;;;2.53;1.67;;;13.60;99.90;;;;;;4965230;28;20228;-79
2022/11/11 02:50:49;;;;;;;2.23;1.77;;;13.60;99.90;;;;;;4964532;28;20228;-80
2022/11/11 02:53:15;;;;;;;8.10;2.67;;;13.70;99.90;;;;;;4964659;28;20243;-79
2022/11/11 02:55:41;;;;;;;5.67;2.80;;;13.70;99.90;;;;;;4965196;28;20217;-79
2022/11/11 02:58:07;;;;;;;3.50;2.60;;;13.60;99.90;;;;;;4964676;28;20192;-79
2022/11/11 03:00:33;;;;;;;2.97;2.20;;;13.60;99.90;;;;;;4964007;28;20196;-80
2022/11/11 03:02:58;;;;;;;2.53;2.00;;;13.70;99.90;;;;;;4946756;28;20332;-79
2022/11/11 03:05:24;;;;;;;5.50;1.97;;;13.60;99.90;;;;;;4963459;28;20232;-80
2022/11/11 03:07:50;;;;;;;3.03;2.13;;;13.60;99.90;;;;;;4964524;28;20252;-79
2022/11/11 03:10:16;;;;;;;6.00;2.27;;;13.70;99.90;;;;;;4964820;28;20279;-80
2022/11/11 03:12:42;;;;;;;5.77;3.43;;;13.70;99.90;;;;;;4965152;28;20681;-79
2022/11/11 03:15:08;;;;;;;0.80;0.57;;;13.70;99.90;;;;;;4963241;28;20212;-79
2022/11/11 03:17:40;;;;;;;3.87;1.90;;;13.70;99.90;;;;;;4962822;28;20327;-80
2022/11/11 03:23:02;;;;;;;1.60;1.47;;;13.70;99.90;;;;;;4964646;28;20232;-78
2022/11/11 03:25:37;;;;;;;4.37;2.63;;;13.80;99.90;;;;;;4962944;28;20232;-80
2022/11/11 03:28:07;;;;;;;7.43;3.47;;;13.70;99.90;;;;;;4963173;28;20216;-79
2022/11/11 03:30:33;;;;;;;7.73;3.27;;;13.70;99.90;;;;;;4963417;28;20225;-79
2022/11/11 03:33:00;;;;;;;13.57;3.47;;;13.60;99.90;;;;;;4964284;28;20224;-81
2022/11/11 03:35:26;;;;;;;4.73;3.90;;;13.40;99.90;;;;;;4963770;28;20232;-79
2022/11/11 03:40:36;;;;;;;2.87;2.67;;;13.20;99.90;;;;;;4963675;28;20236;-79
2022/11/11 03:43:02;;;;;;;5.20;3.83;;;13.20;99.90;;;;;;4963086;28;20650;-81
2022/11/11 03:45:27;;;;;;;6.23;3.20;;;13.20;99.90;;;;;;4963943;28;20270;-79
2022/11/11 03:47:53;;;;;;;4.37;3.23;;;13.10;99.90;;;;;;4964260;28;20228;-79
2022/11/11 03:50:20;;;;;;;7.40;3.23;;;13.20;99.90;;;;;;4964084;28;20232;-79
2022/11/11 03:52:46;;;;;;;4.60;2.77;;;13.20;99.90;;;;;;4963261;28;20224;-80
2022/11/11 03:55:12;;;;;;;5.13;3.07;;;13.20;99.90;;;;;;4962673;28;20189;-79
2022/11/11 03:57:40;;;;;;;15.03;3.87;;;13.20;99.90;;;;;;4931345;28;20322;-79
2022/11/11 04:00:07;;;;;;;4.17;3.10;;;13.10;99.90;;;;;;4963862;28;20702;-79
2022/11/11 04:10:46;;;;;;;5.93;4.37;;;13.00;99.90;;;;;;4962597;28;20228;-82
2022/11/11 04:16:05;;;;;;;6.47;4.00;;;13.00;99.90;;;;;;4964101;28;20192;-78
2022/11/11 04:24:00;;;;;;;4.70;3.77;;;12.90;99.90;;;;;;4963373;28;20682;-79
2022/11/11 04:26:26;;;;;;;5.60;3.13;;;12.80;99.90;;;;;;4963604;28;21179;-79
2022/11/11 04:32:34;;;;;;;7.43;3.97;;;12.80;99.90;;;;;;4961984;28;20228;-81
2022/11/11 04:34:22;;;;;;;5.03;4.53;;;12.80;99.90;;;;;;4962972;28;20204;-80
2022/11/11 04:36:47;;;;;;;10.23;5.27;;;12.80;99.90;;;;;;4961958;28;20241;-82
2022/11/11 04:41:57;;;;;;;8.70;5.53;;;12.80;99.90;;;;;;4962504;28;20227;-81
2022/11/11 04:47:07;;;;;;;14.73;6.77;;;12.70;99.90;;;;;;4963443;28;20598;-79
2022/11/11 04:49:32;;;;;;;9.93;6.03;;;12.70;99.90;;;;;;4961238;28;20248;-79
2022/11/11 04:57:27;;;;;;;7.57;6.73;;;12.60;99.90;;;;;;4961894;28;20228;-80
2022/11/11 04:59:53;;;;;;;10.10;6.53;;;12.60;99.90;;;;;;4961716;28;20275;-78
2022/11/11 05:05:03;;;;;;;14.97;5.70;;;12.60;99.90;;;;;;4962654;28;20224;-80
2022/11/11 05:10:13;;;;;;;10.10;6.70;;;12.60;99.90;;;;;;4961914;28;20721;-78
2022/11/11 05:12:39;;;;;;;8.10;3.80;;;12.60;99.90;;;;;;4961533;28;20201;-79
2022/11/11 05:23:17;;;;;;;7.60;5.53;;;12.50;99.90;;;;;;4961641;28;20271;-80
2022/11/11 05:25:43;;;;;;;10.40;5.63;;;12.40;99.90;;;;;;4960193;28;21017;-80
2022/11/11 05:28:09;;;;;;;14.00;8.37;;;12.40;99.90;;;;;;4929014;28;20217;-81
2022/11/11 05:30:35;;;;;;;15.80;7.53;;;12.30;99.90;;;;;;4961056;28;20293;-79
2022/11/11 05:33:02;;;;;;;11.73;7.00;;;12.30;99.90;;;;;;4944929;28;20279;-79
2022/11/11 05:35:28;;;;;;;9.90;5.87;;;12.20;99.90;;;;;;4961926;28;20224;-79
2022/11/11 05:40:37;;;;;;;8.37;5.43;;;12.10;99.90;;;;;;4961545;28;20256;-80
2022/11/11 05:43:03;;;;;;;9.03;6.70;;;12.10;99.90;;;;;;4961901;28;20197;-79
2022/11/11 05:45:29;;;;;;;9.77;6.93;;;12.00;99.90;;;;;;4961513;28;21050;-79
2022/11/11 05:47:59;;;;;;;11.40;5.37;;;12.00;99.90;;;;;;4960626;28;20235;-79
2022/11/11 05:50:25;;;;;;;6.77;4.10;;;12.00;99.90;;;;;;4962074;28;20237;-79
2022/11/11 05:52:50;;;;;;;17.10;7.83;;;12.00;99.90;;;;;;4961589;28;20228;-83
2022/11/11 05:55:16;;;;;;;7.43;5.80;;;11.90;99.90;;;;;;4961632;28;20593;-80
2022/11/11 05:57:42;;;;;;;16.10;7.43;;;11.90;99.90;;;;;;4961351;28;20673;-78
2022/11/11 06:00:09;;;;;;;6.23;4.33;;;11.90;99.90;;;;;;4961664;28;20232;-79
2022/11/11 06:02:34;;;;;;;11.57;8.13;;;11.90;99.90;;;;;;4960162;28;20808;-81
2022/11/11 06:05:00;;;;;;;12.07;7.27;;;11.90;99.90;;;;;;4961817;28;20229;-82
2022/11/11 06:07:26;;;;;;;11.23;5.30;;;12.00;99.90;;;;;;4961372;28;20596;-78
2022/11/11 06:10:29;;;;;;;12.77;7.23;;;12.00;99.90;;;;;;4960978;28;20197;-78
2022/11/11 06:13:00;;;;;;;8.80;5.53;;;12.00;99.90;;;;;;4961214;28;20225;-80
2022/11/11 06:15:27;;;;;;;9.80;6.27;;;12.00;99.90;;;;;;4961213;28;20216;-80
2022/11/11 06:17:53;;;;;;;12.27;6.77;;;12.10;99.90;;;;;;4961807;28;20228;-81
2022/11/11 06:20:19;;;;;;;9.13;6.63;;;12.10;99.90;;;;;;4961856;28;20224;-78
2022/11/11 06:22:57;;;;;;;5.57;3.57;;;12.00;99.90;;;;;;4959328;28;20295;-78
2022/11/11 06:28:18;;;;;;;15.53;6.03;;;12.00;99.90;;;;;;4961826;28;20592;-78
2022/11/11 06:30:44;;;;;;;13.97;8.17;;;12.00;99.90;;;;;;4961724;28;20216;-78
2022/11/11 06:33:10;;;;;;;11.77;5.27;;;12.10;99.90;;;;;;4960130;28;20231;-80
2022/11/11 06:35:37;;;;;;;11.90;7.23;;;12.10;99.90;;;;;;4961262;28;20220;-79
2022/11/11 06:38:05;;;;;;;10.20;7.67;;;12.10;99.90;;;;;;4961305;28;20271;-78
2022/11/11 06:40:31;;;;;;;10.87;6.47;;;12.10;99.90;;;;;;4961214;28;20271;-79
2022/11/11 06:42:57;;;;;;;8.17;6.27;;;12.10;99.90;;;;;;4961869;28;20559;-80
2022/11/11 06:45:24;;;;;;;10.07;6.07;;;12.10;99.90;;;;;;4961375;28;20326;-80
2022/11/11 06:47:50;;;;;;;8.17;3.60;;;12.10;99.90;;;;;;4960718;28;21101;-79
2022/11/11 06:50:17;;;;;;;11.33;7.97;;;12.10;99.90;;;;;;4961564;28;20236;-79
2022/11/11 06:52:42;;;;;;;15.20;8.97;;;12.20;99.90;;;;;;4959960;28;20244;-80
2022/11/11 06:55:09;;;;;;;11.53;5.87;;;12.20;99.90;;;;;;4961777;28;20647;-80
2022/11/11 06:57:36;;;;;;;12.80;7.37;;;12.20;99.90;;;;;;4961093;28;20197;-79
2022/11/11 07:00:06;;;;;;;13.37;7.30;;;12.20;99.90;;;;;;4961453;28;20655;-80
2022/11/11 07:02:32;;;;;;;6.87;4.57;;;12.20;99.90;;;;;;4962874;28;20227;-80
2022/11/11 07:04:58;;;;;;;18.00;7.93;;;12.20;99.90;;;;;;4962949;28;20773;-77
2022/11/11 07:07:24;;;;;;;15.30;7.10;;;12.20;99.90;;;;;;4963890;28;20219;-80
2022/11/11 07:09:50;;;;;;;18.27;9.73;;;12.20;99.90;;;;;;4947668;28;20189;-80
2022/11/11 07:12:16;;;;;;;19.67;7.77;;;12.20;99.90;;;;;;4963900;28;20229;-80
2022/11/11 07:14:43;;;;;;;16.00;9.50;;;12.20;99.90;;;;;;4963455;28;20236;-80
2022/11/11 07:17:08;;;;;;;12.90;6.30;;;12.20;99.90;;;;;;4964436;28;20679;-79
2022/11/11 07:19:34;;;;;;;20.37;9.63;;;12.30;99.90;;;;;;4963900;28;20311;-80
2022/11/11 07:22:00;;;;;;;15.37;10.03;;;12.30;99.90;;;;;;4963137;28;20201;-79
2022/11/11 07:24:26;;;;;;;23.30;7.43;;;12.30;99.90;;;;;;4963668;28;21058;-80
2022/11/11 07:26:51;;;;;;;9.20;6.47;;;12.30;99.90;;;;;;4965051;28;20234;-80
2022/11/11 07:29:18;;;;;;;16.70;8.20;;;12.30;99.90;;;;;;4947593;28;20247;-79
2022/11/11 07:31:44;;;;;;;14.23;8.83;;;12.30;99.90;;;;;;4963963;28;20699;-80
2022/11/11 07:34:10;;;;;;;18.17;7.67;;;12.30;99.90;;;;;;4964223;28;20193;-80
2022/11/11 07:36:35;;;;;;;12.13;8.10;;;12.30;99.90;;;;;;4947650;28;20256;-80
2022/11/11 07:39:01;;;;;;;14.27;8.90;;;12.30;99.90;;;;;;4964536;28;20248;-79
2022/11/11 07:41:27;;;;;;;13.47;9.10;;;12.30;99.90;;;;;;4964208;28;20382;-80
2022/11/11 07:43:52;;;;;;;17.87;8.03;;;12.30;99.90;;;;;;4963238;28;20227;-79
2022/11/11 07:46:18;;;;;;;12.63;7.80;;;12.30;99.90;;;;;;4962658;28;20188;-79
2022/11/11 07:48:44;;;;;;;12.50;8.27;;;12.30;99.90;;;;;;4963090;28;20772;-82
2022/11/11 07:51:09;;;;;;;13.10;8.13;;;12.30;99.90;;;;;;4962567;28;20217;-80
2022/11/11 07:53:35;;;;;;;14.93;8.93;;;12.30;99.90;;;;;;4962681;28;20593;-79
2022/11/11 07:56:01;;;;;;;10.90;7.53;;;12.30;99.90;;;;;;4964252;28;20311;-79
2022/11/11 07:58:27;;;;;;;16.63;10.20;;;12.30;99.90;;;;;;4964046;28;20239;-79
2022/11/11 08:00:52;;;;;;;13.87;8.93;;;12.30;99.90;;;;;;4964158;28;20295;-79
2022/11/11 08:03:18;;;;;;;19.27;9.40;;;12.30;99.90;;;;;;4946588;28;20216;-80
2022/11/11 08:05:44;;;;;;;15.80;9.53;;;12.40;99.90;;;;;;4963546;28;20263;-79
2022/11/11 08:08:10;;;;;;;15.70;9.43;;;12.40;99.90;;;;;;4964452;28;20243;-80
2022/11/11 08:10:36;;;;;;;13.03;8.00;;;12.40;99.90;;;;;;4947316;28;20225;-80
2022/11/11 08:15:47;;;;;;;16.03;7.53;;;12.40;99.90;;;;;;4965013;28;20212;-80
2022/11/11 08:18:13;;;;;;;16.90;8.97;;;12.40;99.90;;;;;;4947180;28;20255;-78
2022/11/11 08:20:39;;;;;;;12.67;6.83;;;12.40;99.90;;;;;;4963272;28;20220;-80
2022/11/11 08:23:09;;;;;;;16.53;8.17;;;12.40;99.90;;;;;;4964086;28;20279;-80
2022/11/11 08:25:35;;;;;;;14.53;7.53;;;12.50;99.90;;;;;;4963462;28;20221;-79
2022/11/11 08:28:03;;;;;;;13.07;9.17;;;12.50;99.90;;;;;;4947046;28;20420;-79
2022/11/11 08:30:30;;;;;;;23.43;9.03;;;12.50;99.90;;;;;;4963259;28;20698;-80
2022/11/11 08:33:01;;;;;;;15.60;8.27;;;12.50;99.90;;;;;;4962405;28;20275;-80
2022/11/11 08:35:27;;;;;;;20.77;10.43;;;12.60;99.90;;;;;;4978622;28;20279;-80
2022/11/11 08:37:53;;;;;;;15.33;8.93;;;12.60;99.90;;;;;;4962512;28;20225;-79
2022/11/11 08:40:19;;;;;;;14.83;9.10;;;12.60;99.90;;;;;;4964021;28;20254;-80
2022/11/11 08:42:45;;;;;;;16.07;7.93;;;12.70;99.90;;;;;;4963580;28;20223;-79
2022/11/11 08:45:12;;;;;;;19.37;10.37;;;12.70;99.90;;;;;;4961791;28;20315;-80
2022/11/11 08:47:38;;;;;;;18.03;8.73;;;12.70;99.90;;;;;;4963292;28;20220;-80
2022/11/11 08:50:05;;;;;;;13.67;7.27;;;12.70;99.90;;;;;;4963815;28;20232;-80
2022/11/11 08:52:32;;;;;;;16.00;5.53;;;12.70;99.90;;;;;;4962292;28;20392;-81
2022/11/11 08:55:01;;;;;;;13.10;8.70;;;12.60;99.90;;;;;;4962422;28;20192;-80
2022/11/11 08:57:26;;;;;;;21.03;10.83;;;12.60;99.90;;;;;;4963210;28;20228;-80
2022/11/11 08:59:52;;;;;;;13.83;6.60;;;12.60;99.90;;;;;;4946425;28;20232;-81
2022/11/11 09:02:18;;;;;;;9.97;6.87;;;12.60;99.90;;;;;;4962392;28;20680;-79
2022/11/11 09:04:43;;;;;;;13.27;7.50;;;12.50;99.90;;;;;;4960462;28;20228;-79
2022/11/11 09:07:11;;;;;;;14.50;8.73;;;12.50;99.90;;;;;;4946089;28;20200;-79
2022/11/11 09:09:37;;;;;;;15.07;9.90;;;12.40;99.90;;;;;;4945476;28;20722;-81
2022/11/11 09:12:03;;;;;;;10.63;8.23;;;12.40;99.90;;;;;;4962082;28;20255;-81
2022/11/11 09:14:29;;;;;;;13.77;7.47;;;12.40;99.90;;;;;;4963640;28;20306;-80
2022/11/11 09:16:55;;;;;;;19.37;8.10;;;12.40;99.90;;;;;;4977959;28;20351;-79
2022/11/11 09:19:21;;;;;;;13.00;8.10;;;12.40;99.90;;;;;;4945679;28;20247;-80
2022/11/11 09:21:47;;;;;;;12.53;6.83;;;12.50;99.90;;;;;;4962721;28;20316;-79
2022/11/11 09:24:12;;;;;;;16.67;9.60;;;12.50;99.90;;;;;;4961853;28;20253;-80
2022/11/11 09:26:38;;;;;;;22.03;10.17;;;12.50;99.90;;;;;;4962328;28;20283;-78
2022/11/11 09:29:04;;;;;;;24.13;11.80;;;12.50;99.90;;;;;;4962773;28;20642;-79
2022/11/11 09:31:29;;;;;;;12.83;8.50;;;12.60;99.90;;;;;;4961902;28;20220;-80
2022/11/11 09:33:55;;;;;;;15.63;8.33;;;12.60;99.90;;;;;;4961132;28;20200;-81
2022/11/11 09:36:21;;;;;;;15.40;7.23;;;12.60;99.90;;;;;;4962128;28;20717;-81
2022/11/11 09:38:46;;;;;;;16.23;9.17;;;12.60;99.90;;;;;;4961362;28;20244;-78
2022/11/11 09:42:01;;;;;;;16.57;9.67;;;12.60;99.90;;;;;;4960401;28;20338;-78
2022/11/11 09:44:45;;;;;;;10.43;6.60;;;12.60;99.90;;;;;;4948889;28;20232;-79
2022/11/11 09:47:31;;;;;;;12.73;6.63;;;12.70;99.90;;;;;;4962311;28;20335;-81
2022/11/11 09:50:04;;;;;;;14.00;7.83;;;12.70;99.90;;;;;;4961705;28;20713;-81
2022/11/11 09:52:52;;;;;;;15.70;7.57;;;12.70;99.90;;;;;;4962377;28;20224;-81
2022/11/11 09:55:35;;;;;;;10.53;6.63;;;12.70;99.90;;;;;;4963029;28;20321;-78
2022/11/11 09:58:05;;;;;;;17.00;6.67;;;12.70;99.90;;;;;;4962574;28;20228;-78
2022/11/11 10:00:36;;;;;;;9.87;6.90;;;12.70;99.90;;;;;;4963176;28;20219;-79
2022/11/11 10:03:20;;;;;;;8.87;5.07;;;12.70;99.90;;;;;;4961924;28;20252;-80
2022/11/11 10:05:59;;;;;;;20.57;9.27;;;12.70;99.90;;;;;;4961859;28;20982;-79
2022/11/11 10:08:47;;;;;;;17.90;10.63;;;12.80;99.90;;;;;;4961619;28;20232;-79
2022/11/11 10:11:48;;;;;;;13.87;10.37;;;12.90;99.90;;;;;;4961117;28;20674;-79
2022/11/11 10:14:15;;;;;;;14.47;7.83;;;13.00;99.90;;;;;;4960316;28;20345;-80
2022/11/11 10:17:05;;;;;;;14.97;9.40;;;13.00;99.90;;;;;;4959691;28;20225;-80
2022/11/11 10:19:38;;;;;;;12.83;7.33;;;13.00;99.90;;;;;;4961128;28;20231;-82
2022/11/11 10:22:31;;;;;;;18.27;8.27;;;13.00;99.90;;;;;;4961851;28;20343;-80
2022/11/11 10:25:15;;;;;;;16.37;8.53;;;13.10;99.90;;;;;;4961271;28;20586;-80
2022/11/11 10:27:43;;;;;;;17.83;10.40;;;13.10;99.90;;;;;;4960221;28;20279;-79
2022/11/11 10:30:21;;;;;;;17.80;9.17;;;13.10;99.90;;;;;;4959531;28;20312;-82
2022/11/11 10:33:09;;;;;;;13.97;7.70;;;13.10;99.90;;;;;;4958916;28;20981;-83
2022/11/11 10:35:37;;;;;;;21.90;9.00;;;13.00;99.90;;;;;;4960136;28;20258;-81
2022/11/11 10:38:33;;;;;;;21.97;7.13;;;13.00;99.90;;;;;;4963843;28;20239;-80
2022/11/11 10:41:22;;;;;;;14.93;8.30;;;13.00;99.90;;;;;;4964937;28;20582;-81
2022/11/11 10:43:48;;;;;;;16.30;8.37;;;13.00;99.90;;;;;;4964599;28;20232;-80
2022/11/11 10:46:23;;;;;;;21.10;7.60;;;13.10;99.90;;;;;;4965244;28;20204;-80
2022/11/11 10:49:15;;;;;;;17.57;9.50;;;13.10;99.90;;;;;;4964787;28;20302;-79
2022/11/11 10:52:19;;;;;;;15.80;8.10;;;13.10;99.90;;;;;;4965876;28;20232;-81
2022/11/11 10:55:19;;;;;;;15.83;7.27;;;13.10;99.90;;;;;;4932560;28;20235;-79
2022/11/11 10:57:57;;;;;;;14.10;9.13;;;13.20;99.90;;;;;;4959337;28;20237;-79
2022/11/11 11:00:23;;;;;;;16.77;8.77;;;13.30;99.90;;;;;;4963591;28;20323;-80
2022/11/11 11:03:11;;;;;;;18.50;8.70;;;13.30;99.90;;;;;;4947698;28;20598;-79
2022/11/11 11:05:41;;;;;;;14.70;9.23;;;13.40;99.90;;;;;;4962650;28;20236;-79
2022/11/11 11:08:16;;;;;;;22.33;10.13;;;13.50;99.90;;;;;;4964382;28;20232;-80
2022/11/11 11:10:51;;;;;;;16.20;9.10;;;13.60;99.90;;;;;;4955626;28;21036;-79
2022/11/11 11:13:38;;;;;;;19.03;10.77;;;13.50;99.90;;;;;;4961106;28;20192;-80
2022/11/11 11:16:09;;;;;;;6.90;6.17;;;13.50;99.90;;;;;;4960080;28;20184;-79
2022/11/11 11:18:35;;;;;;;15.93;8.37;;;13.40;99.90;;;;;;4962540;28;20228;-80
2022/11/11 11:21:06;;;;;;;21.50;7.83;;;13.20;99.90;;;;;;4962057;28;20236;-79
2022/11/11 11:23:37;;;;;;;21.33;8.87;;;13.30;99.90;;;;;;4962892;28;20775;-80
2022/11/11 11:26:04;;;;;;;7.90;6.33;;;13.20;99.90;;;;;;4962089;28;20305;-80
2022/11/11 11:28:30;;;;;;;18.20;8.20;;;13.20;99.90;;;;;;4961806;28;20240;-80
2022/11/11 11:31:04;;;;;;;15.50;9.80;;;13.20;99.90;;;;;;4963009;28;20323;-80
2022/11/11 11:33:54;;;;;;;11.80;8.13;;;13.20;99.90;;;;;;4965017;28;20872;-80
2022/11/11 11:36:20;;;;;;;13.40;7.50;;;13.10;99.90;;;;;;4964454;28;20270;-81
2022/11/11 11:38:51;;;;;;;13.70;7.70;;;13.10;99.90;;;;;;4964967;28;20251;-82
2022/11/11 11:41:35;;;;;;;19.43;8.10;;;13.10;99.90;;;;;;4966198;28;20241;-84
2022/11/11 11:44:01;;;;;;;11.03;7.53;;;13.10;99.90;;;;;;4967290;28;20278;-81
2022/11/11 11:46:34;;;;;;;16.90;9.07;;;13.20;99.90;;;;;;4966321;28;20224;-82
2022/11/11 11:49:08;;;;;;;17.93;8.10;;;13.10;99.90;;;;;;4966714;28;20205;-83
2022/11/11 11:52:32;;;;;;;14.17;7.57;;;13.20;99.90;;;;;;4966143;28;20216;-81
2022/11/11 11:55:30;;;;;;;11.97;6.97;;;13.20;99.90;;;;;;4942908;28;20220;-83
2022/11/11 11:58:22;;;;;;;10.07;7.07;;;13.30;99.90;;;;;;4965842;28;20246;-81
2022/11/11 12:01:09;;;;;;;19.57;8.03;;;13.20;99.90;;;;;;4966666;28;20201;-82
2022/11/11 12:03:54;;;;;;;12.20;7.70;;;13.30;99.90;;;;;;4982272;28;20577;-80
2022/11/11 12:06:32;;;;;;;10.87;8.83;;;13.30;99.90;;;;;;4966374;28;20216;-81
2022/11/11 12:09:03;;;;;;;10.77;7.47;;;13.20;99.90;;;;;;4966005;28;20225;-81
2022/11/11 12:12:01;;;;;;;14.23;8.13;;;13.20;99.90;;;;;;4966431;28;20363;-80
2022/11/11 12:14:43;;;;;;;15.07;8.37;;;13.20;99.90;;;;;;4934582;28;20225;-80
2022/11/11 12:17:09;;;;;;;17.60;8.97;;;13.30;99.90;;;;;;4966348;28;20224;-80
2022/11/11 12:19:49;;;;;;;11.83;8.20;;;13.20;99.90;;;;;;4965683;28;20260;-80
2022/11/11 12:22:27;;;;;;;12.50;6.47;;;13.30;99.90;;;;;;4966022;28;20185;-80
2022/11/11 12:24:58;;;;;;;13.43;7.47;;;13.30;99.90;;;;;;4964253;28;20185;-79
2022/11/11 12:27:37;;;;;;;8.83;6.33;;;13.30;99.90;;;;;;4965138;28;21131;-81
2022/11/11 12:30:10;;;;;;;11.60;7.60;;;13.30;99.90;;;;;;4964534;28;20315;-81
2022/11/11 12:32:47;;;;;;;10.50;6.00;;;13.30;99.90;;;;;;4965653;28;20263;-79
2022/11/11 12:35:21;;;;;;;16.43;9.33;;;13.30;99.90;;;;;;4964142;28;20300;-80
2022/11/11 12:38:15;;;;;;;15.17;8.33;;;13.30;99.90;;;;;;4979830;28;20303;-80
2022/11/11 12:40:54;;;;;;;24.37;9.30;;;13.30;99.90;;;;;;4965173;28;20591;-81
2022/11/11 12:43:42;;;;;;;13.63;9.47;;;13.30;99.90;;;;;;4963117;28;20200;-80
2022/11/11 12:46:25;;;;;;;14.90;9.07;;;13.30;99.90;;;;;;4963545;28;20702;-81
2022/11/11 12:49:18;;;;;;;13.17;8.33;;;13.30;99.90;;;;;;4965427;28;20212;-80
2022/11/11 12:52:02;;;;;;;12.90;7.70;;;13.40;99.90;;;;;;4965319;28;20248;-80
2022/11/11 12:55:00;;;;;;;16.40;9.50;;;13.30;99.90;;;;;;4964616;28;20232;-80
2022/11/11 12:57:47;;;;;;;16.87;9.00;;;13.30;99.90;;;;;;4944727;28;20791;-81
2022/11/11 13:00:21;;;;;;;12.60;7.47;;;13.40;99.90;;;;;;4964624;28;20860;-81
2022/11/11 13:02:59;;;;;;;12.97;7.13;;;13.40;99.90;;;;;;4964052;28;20252;-80
2022/11/11 13:05:42;;;;;;;12.73;6.93;;;13.40;99.90;;;;;;4964393;28;20334;-80
2022/11/11 13:08:15;;;;;;;16.20;7.77;;;13.40;99.90;;;;;;4963785;28;20705;-80
2022/11/11 13:11:13;;;;;;;17.97;9.57;;;13.40;99.90;;;;;;4965344;28;20225;-80
2022/11/11 13:13:54;;;;;;;14.50;7.53;;;13.40;99.90;;;;;;4964090;28;20350;-82
2022/11/11 13:16:22;;;;;;;12.80;8.03;;;13.40;99.90;;;;;;4964279;28;20227;-80
2022/11/11 13:18:58;;;;;;;9.13;6.03;;;13.40;99.90;;;;;;4964339;28;20211;-82
2022/11/11 13:21:57;;;;;;;14.07;7.37;;;13.40;99.90;;;;;;4964285;28;20236;-80
2022/11/11 13:24:24;;;;;;;14.53;7.13;;;13.40;99.90;;;;;;4964710;28;20209;-79
2022/11/11 13:26:57;;;;;;;10.73;5.60;;;13.40;99.90;;;;;;4963909;28;20248;-81
2022/11/11 13:30:10;;;;;;;13.10;7.50;;;13.40;99.90;;;;;;4963937;28;21178;-80
2022/11/11 13:32:43;;;;;;;12.00;6.03;;;13.40;99.90;;;;;;4941972;28;20275;-81
2022/11/11 13:35:24;;;;;;;10.30;5.77;;;13.40;99.90;;;;;;4965017;28;20689;-82
2022/11/11 13:37:50;;;;;;;6.13;5.00;;;13.30;99.90;;;;;;4963768;28;20299;-82
2022/11/11 13:40:44;;;;;;;13.83;6.83;;;13.30;99.90;;;;;;4962042;28;20306;-81
2022/11/11 13:43:21;;;;;;;10.43;5.93;;;13.30;99.90;;;;;;4960160;28;21372;-81
2022/11/11 13:45:52;;;;;;;8.73;5.73;;;13.30;99.90;;;;;;4978878;28;20193;-80
2022/11/11 13:48:26;;;;;;;10.57;6.07;;;13.30;99.90;;;;;;4963485;28;20286;-81
2022/11/11 13:50:53;;;;;;;16.33;9.00;;;13.30;99.90;;;;;;4963985;28;21009;-81
2022/11/11 13:53:30;;;;;;;14.50;7.90;;;13.30;99.90;;;;;;4962025;28;20212;-82
2022/11/11 13:56:03;;;;;;;20.40;6.43;;;13.30;99.90;;;;;;4962076;28;20224;-82
2022/11/11 13:58:36;;;;;;;11.67;6.80;;;13.30;99.90;;;;;;4964213;28;21222;-81
2022/11/11 14:01:06;;;;;;;5.30;4.57;;;13.30;99.90;;;;;;4962763;28;21016;-81
2022/11/11 14:03:35;;;;;;;7.87;4.80;;;13.30;99.90;;;;;;4963760;28;20220;-80
2022/11/11 14:06:15;;;;;;;7.13;5.93;;;13.30;99.90;;;;;;4963522;28;20267;-82
2022/11/11 14:08:52;;;;;;;7.43;5.63;;;13.30;99.90;;;;;;4963540;28;20228;-81
2022/11/11 14:11:24;;;;;;;5.10;3.73;;;13.30;99.90;;;;;;4968051;28;20662;-81
2022/11/11 14:13:57;;;;;;;6.07;4.90;;;13.30;99.90;;;;;;4969171;28;20216;-81
2022/11/11 14:16:35;;;;;;;10.50;5.00;;;13.30;99.90;;;;;;4970095;28;20188;-81
2022/11/11 14:19:33;;;;;;;13.20;5.17;;;13.20;99.90;;;;;;4969608;28;20192;-82
2022/11/11 14:22:01;;;;;;;3.90;3.23;;;13.30;99.90;;;;;;4935196;28;20231;-81